createdAt,value
2022-12-22T00:00:33.786Z,10.60
2022-12-22T00:03:19.702Z,11.13
2022-12-22T00:06:05.222Z,10.87
2022-12-22T00:08:50.751Z,12.40
2022-12-22T00:11:36.393Z,10.83
2022-12-22T00:14:22.125Z,12.60
2022-12-22T00:17:07.504Z,13.53
2022-12-22T00:19:53.177Z,11.43
2022-12-22T00:22:42.327Z,11.30
2022-12-22T00:25:33.181Z,10.90
2022-12-22T00:28:19.307Z,10.03
2022-12-22T00:31:05.491Z,12.90
2022-12-22T00:33:51.381Z,14.60
2022-12-22T00:36:39.700Z,12.20
2022-12-22T00:39:31.685Z,11.70
2022-12-22T00:42:17.437Z,11.33
2022-12-22T00:45:02.993Z,11.50
2022-12-22T00:47:49.933Z,11.77
2022-12-22T00:50:36.363Z,11.53
2022-12-22T00:53:23.166Z,12.63
2022-12-22T00:56:09.024Z,12.97
2022-12-22T00:58:54.577Z,11.83
2022-12-22T01:01:40.311Z,13.10
2022-12-22T01:04:29.774Z,12.70
2022-12-22T01:07:16.522Z,13.80
2022-12-22T01:10:09.604Z,13.27
2022-12-22T01:12:59.797Z,14.47
2022-12-22T01:15:47.575Z,15.00
2022-12-22T01:18:33.507Z,15.30
2022-12-22T01:21:19.852Z,13.47
2022-12-22T01:24:05.695Z,14.40
2022-12-22T01:26:51.123Z,15.30
2022-12-22T01:29:36.664Z,14.37
2022-12-22T01:32:22.785Z,15.63
2022-12-22T01:35:08.509Z,16.47
2022-12-22T01:37:54.084Z,17.10
2022-12-22T01:40:43.844Z,16.07
2022-12-22T01:43:44.368Z,16.07
2022-12-22T01:46:45.210Z,18.50
2022-12-22T01:49:41.868Z,17.00
2022-12-22T01:52:29.745Z,16.20
2022-12-22T01:55:23.112Z,17.27
2022-12-22T01:58:09.523Z,15.20
2022-12-22T02:00:54.956Z,17.70
2022-12-22T02:03:42.343Z,21.53
2022-12-22T02:07:00.452Z,17.70
2022-12-22T02:10:13.639Z,16.20
2022-12-22T02:13:32.895Z,15.57
2022-12-22T02:16:45.883Z,16.80
2022-12-22T02:20:04.130Z,17.97
2022-12-22T02:23:12.609Z,16.40
2022-12-22T02:26:12.044Z,17.00
2022-12-22T02:28:58.956Z,16.10
2022-12-22T02:31:44.618Z,16.30
2022-12-22T02:34:33.958Z,18.20
2022-12-22T02:37:42.483Z,18.40
2022-12-22T02:40:45.641Z,18.20
2022-12-22T02:43:54.688Z,21.07
2022-12-22T02:46:49.017Z,18.10
2022-12-22T02:49:41.865Z,17.80
2022-12-22T02:52:41.493Z,16.30
2022-12-22T02:55:27.447Z,18.13
2022-12-22T02:58:13.275Z,15.20
2022-12-22T03:00:59.452Z,17.37
2022-12-22T03:03:45.519Z,16.83
2022-12-22T03:06:31.372Z,17.43
2022-12-22T03:09:17.024Z,17.77
2022-12-22T03:12:02.799Z,17.07
2022-12-22T03:14:48.620Z,17.27
2022-12-22T03:17:34.562Z,16.63
2022-12-22T03:20:19.879Z,21.27
2022-12-22T03:23:05.392Z,17.90
2022-12-22T03:25:50.359Z,17.07
2022-12-22T03:28:17.246Z,17.40
2022-12-22T03:30:44.146Z,17.87
2022-12-22T03:33:11.087Z,16.73
2022-12-22T03:35:37.934Z,17.10
2022-12-22T03:38:04.857Z,18.50
2022-12-22T03:40:32.021Z,18.40
2022-12-22T03:43:17.632Z,18.03
2022-12-22T03:46:04.320Z,17.20
2022-12-22T03:48:31.653Z,17.00
2022-12-22T03:50:58.512Z,17.70
2022-12-22T03:53:25.436Z,16.97
2022-12-22T03:55:52.393Z,16.10
2022-12-22T03:58:19.619Z,16.50
2022-12-22T04:00:46.834Z,15.50
2022-12-22T04:03:14.248Z,18.10
2022-12-22T04:05:41.395Z,18.17
2022-12-22T04:08:08.325Z,17.83
2022-12-22T04:10:53.786Z,16.73
2022-12-22T04:13:20.723Z,18.70
2022-12-22T04:15:47.591Z,16.03
2022-12-22T04:18:14.470Z,18.73
2022-12-22T04:20:41.351Z,17.40
2022-12-22T04:23:08.295Z,17.90
2022-12-22T04:25:35.131Z,18.00
2022-12-22T04:28:02.016Z,20.23
2022-12-22T04:30:28.888Z,18.27
2022-12-22T04:32:55.806Z,27.20
2022-12-22T04:35:22.952Z,18.97
2022-12-22T04:37:49.831Z,18.80
2022-12-22T04:40:16.880Z,19.23
2022-12-22T04:42:44.454Z,17.80
2022-12-22T04:45:11.445Z,17.87
2022-12-22T04:47:38.367Z,20.03
2022-12-22T04:50:06.323Z,18.97
2022-12-22T04:52:33.236Z,18.57
2022-12-22T04:55:00.126Z,19.87
2022-12-22T04:57:27.158Z,20.43
2022-12-22T04:59:55.220Z,19.40
2022-12-22T05:02:22.209Z,23.70
2022-12-22T05:04:49.207Z,21.63
2022-12-22T05:07:16.231Z,20.37
2022-12-22T05:09:43.131Z,21.90
2022-12-22T05:12:29.280Z,19.43
2022-12-22T05:14:56.175Z,20.23
2022-12-22T05:17:23.093Z,21.60
2022-12-22T05:19:50.072Z,21.87
2022-12-22T05:22:17.003Z,23.47
2022-12-22T05:24:43.934Z,23.63
2022-12-22T05:27:12.260Z,22.40
2022-12-22T05:29:39.164Z,18.60
2022-12-22T05:32:06.015Z,21.27
2022-12-22T05:34:33.001Z,19.70
2022-12-22T05:36:59.874Z,19.77
2022-12-22T05:39:26.795Z,19.07
2022-12-22T05:41:53.701Z,19.77
2022-12-22T05:44:20.685Z,17.20
2022-12-22T05:46:52.218Z,17.40
2022-12-22T05:49:19.950Z,20.43
2022-12-22T05:51:46.919Z,18.03
2022-12-22T05:54:13.889Z,18.83
2022-12-22T05:56:40.981Z,17.40
2022-12-22T05:59:07.883Z,18.63
2022-12-22T06:01:35.225Z,20.03
2022-12-22T06:04:02.432Z,18.70
2022-12-22T06:06:29.522Z,20.27
2022-12-22T06:08:56.683Z,17.60
2022-12-22T06:11:23.564Z,17.60
2022-12-22T06:13:50.602Z,17.83
2022-12-22T06:16:17.562Z,18.30
2022-12-22T06:18:48.005Z,20.50
2022-12-22T06:21:14.874Z,19.53
2022-12-22T06:23:41.793Z,21.30
2022-12-22T06:26:09.476Z,24.13
2022-12-22T06:28:36.713Z,24.73
2022-12-22T06:31:04.017Z,23.10
2022-12-22T06:33:31.479Z,25.60
2022-12-22T06:35:59.517Z,25.67
2022-12-22T06:38:28.242Z,27.20
2022-12-22T06:40:55.591Z,23.10
2022-12-22T06:43:22.536Z,20.97
2022-12-22T06:45:49.417Z,20.63
2022-12-22T06:48:16.841Z,22.30
2022-12-22T06:50:43.701Z,21.10
2022-12-22T06:53:11.547Z,23.27
2022-12-22T06:55:39.025Z,23.03
2022-12-22T06:58:06.323Z,23.17
2022-12-22T07:00:34.043Z,22.17
2022-12-22T07:03:01.394Z,21.93
2022-12-22T07:05:30.432Z,20.50
2022-12-22T07:08:01.158Z,20.50
2022-12-22T07:10:52.206Z,20.83
2022-12-22T07:13:23.915Z,18.70
2022-12-22T07:15:59.579Z,18.97
2022-12-22T07:18:32.784Z,17.93
2022-12-22T07:21:02.112Z,19.93
2022-12-22T07:23:30.308Z,22.07
2022-12-22T07:25:57.373Z,18.30
2022-12-22T07:28:25.226Z,19.87
2022-12-22T07:30:54.943Z,18.07
2022-12-22T07:33:22.401Z,19.40
2022-12-22T07:35:49.322Z,15.57
2022-12-22T07:38:16.246Z,16.33
2022-12-22T07:40:44.980Z,18.77
2022-12-22T07:43:13.676Z,20.27
2022-12-22T07:45:40.570Z,27.13
2022-12-22T07:48:27.549Z,21.00
2022-12-22T07:50:56.982Z,20.03
2022-12-22T07:53:23.865Z,55.70
2022-12-22T07:55:50.791Z,37.07
2022-12-22T07:58:17.658Z,19.27
2022-12-22T08:00:44.608Z,25.80
2022-12-22T08:03:11.947Z,21.27
2022-12-22T08:05:38.944Z,17.90
2022-12-22T08:08:06.065Z,21.20
2022-12-22T08:10:33.402Z,20.80
2022-12-22T08:13:00.334Z,26.20
2022-12-22T08:15:27.301Z,24.23
2022-12-22T08:17:54.444Z,25.10
2022-12-22T08:20:21.335Z,21.87
2022-12-22T08:22:48.195Z,22.17
2022-12-22T08:25:15.147Z,21.07
2022-12-22T08:27:49.058Z,36.73
2022-12-22T08:30:16.055Z,23.87
2022-12-22T08:32:47.301Z,24.57
2022-12-22T08:35:14.310Z,25.30
2022-12-22T08:37:43.658Z,24.37
2022-12-22T08:40:18.712Z,25.20
2022-12-22T08:42:47.153Z,23.63
2022-12-22T08:45:14.363Z,24.47
2022-12-22T08:47:41.425Z,24.57
2022-12-22T08:50:09.435Z,23.80
2022-12-22T08:52:36.358Z,23.73
2022-12-22T08:55:03.250Z,20.47
2022-12-22T08:57:30.239Z,23.60
2022-12-22T08:59:57.155Z,25.77
2022-12-22T09:02:24.173Z,25.10
2022-12-22T09:04:51.157Z,27.27
2022-12-22T09:07:18.639Z,47.60
2022-12-22T09:09:46.571Z,66.67
2022-12-22T09:12:13.574Z,41.17
2022-12-22T09:14:40.496Z,43.50
2022-12-22T09:17:08.446Z,54.57
2022-12-22T09:19:35.611Z,46.70
2022-12-22T09:22:02.630Z,31.93
2022-12-22T09:24:29.622Z,32.90
2022-12-22T09:26:57.234Z,33.60
2022-12-22T09:29:24.199Z,35.40
2022-12-22T09:31:51.378Z,37.60
2022-12-22T09:34:18.873Z,42.17
2022-12-22T09:36:46.541Z,45.00
2022-12-22T09:39:14.201Z,42.27
2022-12-22T09:41:51.283Z,38.23
2022-12-22T09:44:38.009Z,47.67
2022-12-22T09:47:29.704Z,46.67
2022-12-22T09:49:57.950Z,51.53
2022-12-22T09:52:46.597Z,49.73
2022-12-22T09:55:47.328Z,53.40
2022-12-22T09:58:31.578Z,58.67
2022-12-22T10:01:29.381Z,67.30
2022-12-22T10:04:28.828Z,59.20
2022-12-22T10:07:25.724Z,62.07
2022-12-22T10:09:52.832Z,58.20
2022-12-22T10:12:24.619Z,60.10
2022-12-22T10:14:54.123Z,61.33
2022-12-22T10:17:29.037Z,56.77
2022-12-22T10:20:27.570Z,56.20
2022-12-22T10:23:21.138Z,51.97
2022-12-22T10:26:27.557Z,56.63
2022-12-22T10:29:10.493Z,55.70
2022-12-22T10:31:58.871Z,58.90
2022-12-22T10:34:26.057Z,51.37
2022-12-22T10:36:59.668Z,56.33
2022-12-22T10:39:34.523Z,50.70
2022-12-22T10:42:14.577Z,50.30
2022-12-22T10:44:47.806Z,51.20
2022-12-22T10:47:20.809Z,52.33
2022-12-22T10:52:29.481Z,53.03
2022-12-22T10:55:21.892Z,45.27
2022-12-22T10:57:50.150Z,51.73
2022-12-22T11:00:27.233Z,50.17
2022-12-22T11:02:57.890Z,53.93
2022-12-22T11:05:25.676Z,173.03
2022-12-22T11:07:53.366Z,107.80
2022-12-22T11:10:43.966Z,202.87
2022-12-22T11:13:51.547Z,109.00
2022-12-22T11:16:33.078Z,43.30
2022-12-22T11:19:40.541Z,51.03
2022-12-22T11:22:23.644Z,45.10
2022-12-22T11:25:32.725Z,36.60
2022-12-22T11:28:34.399Z,40.57
2022-12-22T11:31:47.014Z,37.27
2022-12-22T11:35:11.425Z,142.60
2022-12-22T11:37:43.954Z,56.87
2022-12-22T11:40:31.111Z,53.60
2022-12-22T11:43:27.336Z,77.30
2022-12-22T11:46:37.560Z,53.70
2022-12-22T11:49:44.953Z,40.20
2022-12-22T11:52:34.259Z,49.73
2022-12-22T11:55:29.427Z,47.00
2022-12-22T11:58:34.030Z,36.10
2022-12-22T12:01:34.560Z,35.33
2022-12-22T12:04:33.345Z,34.10
2022-12-22T12:07:40.976Z,27.93
2022-12-22T12:10:28.911Z,29.70
2022-12-22T12:13:30.067Z,28.30
2022-12-22T12:16:31.454Z,21.10
2022-12-22T12:19:26.841Z,27.93
2022-12-22T12:22:00.151Z,25.67
2022-12-22T12:24:52.178Z,26.53
2022-12-22T12:27:43.376Z,28.03
2022-12-22T12:33:20.903Z,23.83
2022-12-22T12:36:13.839Z,22.10
2022-12-22T12:39:07.854Z,18.63
2022-12-22T12:42:23.440Z,19.80
2022-12-22T12:44:53.131Z,18.63
2022-12-22T12:47:23.495Z,23.73
2022-12-22T12:50:00.300Z,53.10
2022-12-22T12:52:53.631Z,39.00
2022-12-22T12:55:32.822Z,36.10
2022-12-22T12:58:03.833Z,11.40
2022-12-22T13:00:33.796Z,15.77
2022-12-22T13:03:25.074Z,9.97
2022-12-22T13:06:01.407Z,12.07
2022-12-22T13:08:31.853Z,9.70
2022-12-22T13:10:58.818Z,10.33
2022-12-22T13:13:25.606Z,10.90
2022-12-22T13:16:02.034Z,9.73
2022-12-22T13:18:37.470Z,10.27
2022-12-22T13:21:51.751Z,9.80
2022-12-22T13:24:29.516Z,5.60
2022-12-22T13:27:04.226Z,7.50
2022-12-22T13:29:45.109Z,9.43
2022-12-22T13:32:27.905Z,17.17
2022-12-22T13:35:46.618Z,8.37
2022-12-22T13:38:37.291Z,7.33
2022-12-22T13:41:21.406Z,6.70
2022-12-22T13:44:03.250Z,7.30
2022-12-22T13:46:33.691Z,8.80
2022-12-22T13:49:04.772Z,8.20
2022-12-22T13:51:36.235Z,8.93
2022-12-22T13:54:11.102Z,5.57
2022-12-22T13:56:52.228Z,5.67
2022-12-22T13:59:39.976Z,6.40
2022-12-22T14:02:09.980Z,6.27
2022-12-22T14:04:43.100Z,5.60
2022-12-22T14:07:19.459Z,26.20
2022-12-22T14:09:55.898Z,63.77
2022-12-22T14:12:39.701Z,82.63
2022-12-22T14:15:16.923Z,50.47
2022-12-22T14:17:52.180Z,55.50
2022-12-22T14:20:28.085Z,55.90
2022-12-22T14:23:07.570Z,19.97
2022-12-22T14:25:39.035Z,41.63
2022-12-22T14:28:15.308Z,55.03
2022-12-22T14:30:46.542Z,28.57
2022-12-22T14:33:28.519Z,45.73
2022-12-22T14:36:26.163Z,13.33
2022-12-22T14:39:03.954Z,10.37
2022-12-22T14:41:52.105Z,8.73
2022-12-22T14:44:28.356Z,4.40
2022-12-22T14:47:12.551Z,11.00
2022-12-22T14:50:10.038Z,8.30
2022-12-22T14:53:00.108Z,6.97
2022-12-22T14:55:41.045Z,6.67
2022-12-22T14:58:20.341Z,6.93
2022-12-22T15:01:12.783Z,5.33
2022-12-22T15:03:40.843Z,7.63
2022-12-22T15:06:29.206Z,9.00
2022-12-22T15:09:09.009Z,9.13
2022-12-22T15:11:41.165Z,8.47
2022-12-22T15:14:19.183Z,9.43
2022-12-22T15:16:48.593Z,10.23
2022-12-22T15:19:36.989Z,8.17
2022-12-22T15:22:08.106Z,7.43
2022-12-22T15:24:35.621Z,11.13
2022-12-22T15:27:02.693Z,8.53
2022-12-22T15:29:29.666Z,9.30
2022-12-22T15:31:56.740Z,9.43
2022-12-22T15:34:28.122Z,12.20
2022-12-22T15:36:55.258Z,9.30
2022-12-22T15:39:23.338Z,10.10
2022-12-22T15:41:50.929Z,9.87
2022-12-22T15:44:18.134Z,12.70
2022-12-22T15:46:51.789Z,9.47
2022-12-22T15:49:23.105Z,11.17
2022-12-22T15:51:55.617Z,11.73
2022-12-22T15:54:23.500Z,13.40
2022-12-22T15:56:52.740Z,12.70
2022-12-22T15:59:25.679Z,11.17
2022-12-22T16:02:00.335Z,10.57
2022-12-22T16:04:28.502Z,11.87
2022-12-22T16:06:56.271Z,17.73
2022-12-22T16:09:31.328Z,12.63
2022-12-22T16:11:58.605Z,15.47
2022-12-22T16:14:25.524Z,11.93
2022-12-22T16:16:52.841Z,14.50
2022-12-22T16:19:19.792Z,14.50
2022-12-22T16:21:50.777Z,15.80
2022-12-22T16:24:38.054Z,15.77
2022-12-22T16:27:05.335Z,12.47
2022-12-22T16:29:32.225Z,14.80
2022-12-22T16:32:28.534Z,15.60
2022-12-22T16:35:14.902Z,13.23
2022-12-22T16:37:42.691Z,12.60
2022-12-22T16:40:10.639Z,20.33
2022-12-22T16:45:27.479Z,13.93
2022-12-22T16:48:00.027Z,15.70
2022-12-22T16:50:32.942Z,12.80
2022-12-22T16:53:03.563Z,12.77
2022-12-22T16:55:31.726Z,14.55
2022-12-22T16:57:58.675Z,14.20
2022-12-22T17:00:30.846Z,16.55
2022-12-22T17:03:13.743Z,17.45
2022-12-22T17:05:54.133Z,16.20
2022-12-22T17:08:34.302Z,14.83
2022-12-22T17:11:10.541Z,18.30
2022-12-22T17:13:38.585Z,15.00
2022-12-22T17:16:06.029Z,16.73
2022-12-22T17:18:34.865Z,15.10
2022-12-22T17:21:01.967Z,14.87
2022-12-22T17:23:35.174Z,18.03
2022-12-22T17:26:07.321Z,15.83
2022-12-22T17:28:36.372Z,16.63
2022-12-22T17:31:03.394Z,18.27
2022-12-22T17:33:32.526Z,14.40
2022-12-22T17:36:01.268Z,13.93
2022-12-22T17:38:29.514Z,16.97
2022-12-22T17:40:57.557Z,15.40
2022-12-22T17:43:24.641Z,18.37
2022-12-22T17:45:52.370Z,15.23
2022-12-22T17:48:22.640Z,15.57
2022-12-22T17:50:50.264Z,17.20
2022-12-22T17:53:20.146Z,22.63
2022-12-22T17:58:36.268Z,17.50
2022-12-22T18:01:03.414Z,16.33
2022-12-22T18:03:30.421Z,18.13
2022-12-22T18:05:58.899Z,14.90
2022-12-22T18:08:25.803Z,20.87
2022-12-22T18:10:53.707Z,19.30
2022-12-22T18:13:25.055Z,17.80
2022-12-22T18:15:53.170Z,21.33
2022-12-22T18:18:20.865Z,21.30
2022-12-22T18:21:05.711Z,21.77
2022-12-22T18:23:37.087Z,23.03
2022-12-22T18:26:11.009Z,23.83
2022-12-22T18:28:37.965Z,22.93
2022-12-22T18:31:04.989Z,25.20
2022-12-22T18:33:31.980Z,25.87
2022-12-22T18:36:00.204Z,22.77
2022-12-22T18:38:32.800Z,29.20
2022-12-22T18:41:00.267Z,31.13
2022-12-22T18:43:27.463Z,24.43
2022-12-22T18:45:54.452Z,26.83
2022-12-22T18:48:21.375Z,26.67
2022-12-22T18:50:48.640Z,26.60
2022-12-22T18:53:26.851Z,37.70
2022-12-22T18:55:54.938Z,31.93
2022-12-22T18:58:22.653Z,29.87
2022-12-22T19:00:50.933Z,31.08
2022-12-22T19:03:29.136Z,51.47
2022-12-22T19:05:57.464Z,77.40
2022-12-22T19:08:27.514Z,80.20
2022-12-22T19:10:57.744Z,69.67
2022-12-22T19:13:38.854Z,47.70
2022-12-22T19:16:07.544Z,32.20
2022-12-22T19:18:34.425Z,25.07
2022-12-22T19:21:01.352Z,24.60
2022-12-22T19:23:28.250Z,35.40
2022-12-22T19:26:07.782Z,26.77
2022-12-22T19:28:40.230Z,24.77
2022-12-22T19:31:10.189Z,22.07
2022-12-22T19:33:43.132Z,23.60
2022-12-22T19:36:27.898Z,24.20
2022-12-22T19:39:05.897Z,29.77
2022-12-22T19:41:49.363Z,27.23
2022-12-22T19:44:27.304Z,26.00
2022-12-22T19:46:55.705Z,28.07
2022-12-22T19:49:26.919Z,28.73
2022-12-22T19:51:56.119Z,31.63
2022-12-22T19:54:23.972Z,30.73
2022-12-22T19:56:56.000Z,30.23
2022-12-22T19:59:38.502Z,31.00
2022-12-22T20:02:21.756Z,28.83
2022-12-22T20:04:50.259Z,28.07
2022-12-22T20:07:20.972Z,28.83
2022-12-22T20:09:48.946Z,29.87
2022-12-22T20:12:39.137Z,27.37
2022-12-22T20:15:18.618Z,28.60
2022-12-22T20:17:50.421Z,25.50
2022-12-22T20:20:40.340Z,25.87
2022-12-22T20:23:15.633Z,27.90
2022-12-22T20:25:58.549Z,28.80
2022-12-22T20:28:29.990Z,29.70
2022-12-22T20:30:58.419Z,27.43
2022-12-22T20:33:26.495Z,26.93
2022-12-22T20:35:56.259Z,23.97
2022-12-22T20:38:36.554Z,27.70
2022-12-22T20:41:07.408Z,30.30
2022-12-22T20:43:37.897Z,28.07
2022-12-22T20:46:16.514Z,27.77
2022-12-22T20:49:04.461Z,25.23
2022-12-22T20:51:33.790Z,27.90
2022-12-22T20:54:01.194Z,26.00
2022-12-22T20:56:37.605Z,24.10
2022-12-22T20:59:21.871Z,28.80
2022-12-22T21:01:51.327Z,27.30
2022-12-22T21:04:18.828Z,202.93
2022-12-22T21:06:53.864Z,29.73
2022-12-22T21:09:21.604Z,29.00
2022-12-22T21:11:48.913Z,25.10
2022-12-22T21:14:16.740Z,25.07
2022-12-22T21:16:43.953Z,24.80
2022-12-22T21:19:19.255Z,28.03
2022-12-22T21:21:47.370Z,26.90
2022-12-22T21:24:14.639Z,29.00
2022-12-22T21:26:47.735Z,27.43
2022-12-22T21:29:21.336Z,27.83
2022-12-22T21:31:48.420Z,27.43
2022-12-22T21:34:15.311Z,28.57
2022-12-22T21:36:45.557Z,28.90
2022-12-22T21:39:42.561Z,26.10
2022-12-22T21:42:15.608Z,28.50
2022-12-22T21:44:42.879Z,33.00
2022-12-22T21:47:13.973Z,32.07
2022-12-22T21:49:41.036Z,35.00
2022-12-22T21:52:07.973Z,29.40
2022-12-22T21:54:34.919Z,35.70
2022-12-22T21:57:01.790Z,29.33
2022-12-22T21:59:28.791Z,31.30
2022-12-22T22:01:56.617Z,31.30
2022-12-22T22:04:24.407Z,32.43
2022-12-22T22:06:51.318Z,32.17
2022-12-22T22:09:18.288Z,31.03
2022-12-22T22:12:03.457Z,30.13
2022-12-22T22:14:30.416Z,29.17
2022-12-22T22:16:57.275Z,35.43
2022-12-22T22:19:24.239Z,26.97
2022-12-22T22:21:51.117Z,30.27
2022-12-22T22:24:18.092Z,28.63
2022-12-22T22:26:45.995Z,29.70
2022-12-22T22:29:12.967Z,29.97
2022-12-22T22:31:41.187Z,32.63
2022-12-22T22:34:09.017Z,29.53
2022-12-22T22:36:35.886Z,26.63
2022-12-22T22:39:03.142Z,27.60
2022-12-22T22:41:33.172Z,24.27
2022-12-22T22:44:03.493Z,30.37
2022-12-22T22:46:30.534Z,26.47
2022-12-22T22:48:58.723Z,22.37
2022-12-22T22:51:25.711Z,25.33
2022-12-22T22:53:52.650Z,22.93
2022-12-22T22:56:19.606Z,23.57
2022-12-22T22:58:46.560Z,22.60
2022-12-22T23:01:14.045Z,25.90
2022-12-22T23:03:41.249Z,24.93
2022-12-22T23:06:12.119Z,23.93
2022-12-22T23:08:39.456Z,23.73
2022-12-22T23:11:13.487Z,25.00
2022-12-22T23:13:41.103Z,26.83
2022-12-22T23:16:08.170Z,24.37
2022-12-22T23:18:35.341Z,22.00
2022-12-22T23:21:05.562Z,23.30
2022-12-22T23:23:33.701Z,27.40
2022-12-22T23:26:00.624Z,20.20
2022-12-22T23:28:27.679Z,22.00
2022-12-22T23:30:54.794Z,23.27
2022-12-22T23:33:22.474Z,23.80
2022-12-22T23:35:50.174Z,23.83
2022-12-22T23:38:20.922Z,20.73
2022-12-22T23:40:53.473Z,21.03
2022-12-22T23:43:21.847Z,19.90
2022-12-22T23:45:48.754Z,21.27
2022-12-22T23:48:15.771Z,20.00
2022-12-22T23:50:46.410Z,22.80
2022-12-22T23:53:13.797Z,23.90
2022-12-22T23:55:50.140Z,23.27
2022-12-22T23:58:17.784Z,19.23
